Time;durP1;ratioP1;P1;durP2;ratioP2;P2;SDS_P1;SDS_P2;PMS_P1;PMS_P2;Temp;Humidity;BMP_temperature;BMP_pressure;BME280_temperature;BME280_humidity;BME280_pressure;Samples;Min_cycle;Max_cycle;Signal;HPM_P1;HPM_P2
2023/10/16 00:00:29;;;;;;;8.50;3.60;;;5.50;99.90;;;;;;4993294;28;20175;-74
2023/10/16 00:03:01;;;;;;;8.53;3.33;;;5.30;99.90;;;;;;4991590;28;20178;-74
2023/10/16 00:05:31;;;;;;;10.47;3.97;;;5.20;99.90;;;;;;4981346;28;20210;-74
2023/10/16 00:07:57;;;;;;;7.17;3.60;;;5.30;99.90;;;;;;4992856;28;20282;-74
2023/10/16 00:10:24;;;;;;;7.83;3.57;;;5.40;99.90;;;;;;4992938;28;20179;-74
2023/10/16 00:12:51;;;;;;;9.30;4.10;;;5.30;99.90;;;;;;4993277;28;20245;-74
2023/10/16 00:15:16;;;;;;;8.07;3.70;;;5.20;99.90;;;;;;4993105;28;20729;-74
2023/10/16 00:17:43;;;;;;;8.30;3.77;;;5.10;99.90;;;;;;4992890;28;20254;-74
2023/10/16 00:20:14;;;;;;;7.93;3.70;;;4.90;99.90;;;;;;4992844;28;20183;-74
2023/10/16 00:22:43;;;;;;;10.10;3.97;;;5.10;99.90;;;;;;4992699;28;20685;-73
2023/10/16 00:25:10;;;;;;;7.00;3.70;;;5.20;99.90;;;;;;4992791;28;20713;-74
2023/10/16 00:27:37;;;;;;;8.30;3.60;;;5.20;99.90;;;;;;4975594;28;20710;-74
2023/10/16 00:30:07;;;;;;;7.17;3.77;;;5.20;99.90;;;;;;4992641;28;20263;-75
2023/10/16 00:32:37;;;;;;;11.50;3.93;;;5.10;99.90;;;;;;4992554;28;20561;-75
2023/10/16 00:35:04;;;;;;;8.53;3.90;;;5.90;99.90;;;;;;4975076;28;20266;-75
2023/10/16 00:37:32;;;;;;;10.97;3.07;;;5.10;99.90;;;;;;4992481;28;20276;-75
2023/10/16 00:39:57;;;;;;;11.67;4.00;;;6.10;99.90;;;;;;4992527;28;20187;-74
2023/10/16 00:42:23;;;;;;;7.67;3.47;;;5.70;99.90;;;;;;4975251;28;20175;-75
2023/10/16 00:44:55;;;;;;;9.13;3.80;;;4.80;99.90;;;;;;4992362;28;20662;-75
2023/10/16 00:47:22;;;;;;;6.87;3.67;;;;;;;;;;4992582;28;20266;-75
2023/10/16 00:49:49;;;;;;;7.90;3.67;;;;;;;;;;4990971;28;20179;-75
2023/10/16 00:52:16;;;;;;;11.10;4.07;;;4.90;99.90;;;;;;4992578;28;20179;-74
2023/10/16 00:54:42;;;;;;;7.93;3.50;;;5.40;99.90;;;;;;4991678;28;20186;-74
2023/10/16 00:57:08;;;;;;;9.30;3.97;;;4.70;99.90;;;;;;4992420;28;20289;-75
2023/10/16 00:59:39;;;;;;;9.00;3.63;;;4.70;99.90;;;;;;4992191;28;20249;-74
2023/10/16 01:02:07;;;;;;;9.17;3.90;;;4.80;99.90;;;;;;4992474;28;20175;-74
2023/10/16 01:04:33;;;;;;;9.70;4.07;;;4.40;99.90;;;;;;4992276;28;20658;-74
2023/10/16 01:07:01;;;;;;;8.90;3.87;;;4.50;99.90;;;;;;4992248;28;20225;-75
2023/10/16 01:09:32;;;;;;;9.73;3.93;;;4.80;99.90;;;;;;4991941;28;20219;-75
2023/10/16 01:12:00;;;;;;;6.80;3.70;;;5.80;99.90;;;;;;4974796;28;20258;-75
2023/10/16 01:14:25;;;;;;;6.43;3.77;;;4.80;99.90;;;;;;4992043;28;20241;-74
2023/10/16 01:16:54;;;;;;;9.70;3.80;;;4.70;99.90;;;;;;4992258;28;20690;-75
2023/10/16 01:19:20;;;;;;;10.30;3.90;;;4.70;99.90;;;;;;4991958;28;20183;-75
2023/10/16 01:21:46;;;;;;;8.03;3.93;;;5.10;99.90;;;;;;4992016;28;20183;-75
2023/10/16 01:24:12;;;;;;;7.13;3.70;;;5.60;99.90;;;;;;4991957;28;20171;-75
2023/10/16 01:26:40;;;;;;;7.10;3.87;;;5.70;99.90;;;;;;4991807;28;20274;-75
2023/10/16 01:29:07;;;;;;;10.70;4.13;;;6.60;99.90;;;;;;4991744;28;20254;-75
2023/10/16 01:31:33;;;;;;;7.60;3.90;;;4.50;99.90;;;;;;4989963;28;20179;-75
2023/10/16 01:33:59;;;;;;;14.33;4.30;;;4.70;99.90;;;;;;4990008;28;20274;-75
2023/10/16 01:36:25;;;;;;;8.63;4.10;;;5.10;99.90;;;;;;4991713;28;20198;-75
2023/10/16 01:38:51;;;;;;;10.97;4.17;;;5.70;99.90;;;;;;4991916;28;20175;-74
2023/10/16 01:41:18;;;;;;;9.30;4.27;;;4.70;99.90;;;;;;4991720;28;20650;-74
2023/10/16 01:43:44;;;;;;;7.33;3.50;;;5.10;99.90;;;;;;4991846;28;20175;-74
2023/10/16 01:46:12;;;;;;;11.73;4.30;;;4.70;99.90;;;;;;4991702;28;20183;-74
2023/10/16 01:48:40;;;;;;;7.00;3.77;;;6.20;99.90;;;;;;4990392;28;20546;-74
2023/10/16 01:51:09;;;;;;;9.77;4.20;;;4.70;99.90;;;;;;4991760;28;20167;-74
2023/10/16 01:53:42;;;;;;;13.87;4.50;;;5.20;99.90;;;;;;4991581;28;20183;-75
2023/10/16 01:56:12;;;;;;;13.80;4.50;;;4.70;99.90;;;;;;4991488;28;20213;-75
2023/10/16 01:58:43;;;;;;;10.57;4.60;;;4.70;99.90;;;;;;4991372;28;20199;-75
2023/10/16 02:01:17;;;;;;;9.73;4.17;;;5.10;99.90;;;;;;4991651;28;20168;-75
2023/10/16 02:03:44;;;;;;;7.37;4.40;;;4.60;99.90;;;;;;4991632;28;20270;-75
2023/10/16 02:06:13;;;;;;;10.87;4.63;;;4.60;99.90;;;;;;4977163;28;20175;-74
2023/10/16 02:08:40;;;;;;;10.47;4.30;;;4.70;99.90;;;;;;4995416;28;20231;-74
2023/10/16 02:11:06;;;;;;;9.50;4.67;;;4.60;99.90;;;;;;4995524;28;20290;-75
2023/10/16 02:13:35;;;;;;;10.70;4.23;;;4.60;99.90;;;;;;4995435;28;20646;-74
2023/10/16 02:16:02;;;;;;;9.57;4.00;;;4.70;99.90;;;;;;4995223;28;20195;-74
2023/10/16 02:18:36;;;;;;;10.07;5.10;;;4.90;99.90;;;;;;4995245;28;20171;-74
2023/10/16 02:21:02;;;;;;;8.13;4.07;;;5.70;99.90;;;;;;4979280;28;20171;-74
2023/10/16 02:23:30;;;;;;;10.50;4.83;;;5.40;99.90;;;;;;4994946;28;20732;-74
2023/10/16 02:25:59;;;;;;;10.50;4.90;;;4.80;99.90;;;;;;4995102;28;20174;-74
2023/10/16 02:28:25;;;;;;;9.07;4.97;;;4.50;99.90;;;;;;4994803;28;20274;-75
2023/10/16 02:30:51;;;;;;;8.13;4.00;;;5.00;99.90;;;;;;4994525;28;20258;-74
2023/10/16 02:33:26;;;;;;;10.23;4.87;;;4.50;99.90;;;;;;4994589;28;20270;-74
2023/10/16 02:35:53;;;;;;;9.37;4.33;;;4.60;99.90;;;;;;4994746;28;20534;-73
2023/10/16 02:38:29;;;;;;;9.70;4.50;;;;;;;;;;4994627;28;20211;-75
2023/10/16 02:41:03;;;;;;;11.67;5.00;;;4.50;99.90;;;;;;4995014;28;20171;-73
2023/10/16 02:43:36;;;;;;;11.20;5.20;;;;;;;;;;4994295;28;20179;-73
2023/10/16 02:46:04;;;;;;;9.73;4.40;;;;;;;;;;4977410;28;20201;-73
2023/10/16 02:48:30;;;;;;;8.37;4.53;;;4.60;99.90;;;;;;4994293;28;20198;-74
2023/10/16 02:50:59;;;;;;;9.57;4.37;;;4.50;99.90;;;;;;4995101;28;20171;-72
2023/10/16 02:53:27;;;;;;;10.70;4.23;;;4.40;99.90;;;;;;4994524;28;20183;-73
2023/10/16 02:55:57;;;;;;;9.80;4.60;;;4.50;99.90;;;;;;4994250;28;20180;-74
2023/10/16 02:58:25;;;;;;;12.23;4.60;;;4.50;99.90;;;;;;4991163;28;20186;-73
2023/10/16 03:00:53;;;;;;;8.63;4.73;;;4.50;99.90;;;;;;4994315;28;20179;-73
2023/10/16 03:03:20;;;;;;;10.07;5.07;;;4.00;99.90;;;;;;4994446;28;20203;-73
2023/10/16 03:05:45;;;;;;;11.97;5.20;;;4.90;99.90;;;;;;4994374;28;20176;-72
2023/10/16 03:08:13;;;;;;;12.13;5.50;;;5.80;99.90;;;;;;4994200;28;20218;-72
2023/10/16 03:10:40;;;;;;;11.87;4.80;;;4.60;99.90;;;;;;4994183;28;20183;-73
2023/10/16 03:13:06;;;;;;;9.73;4.80;;;4.60;99.90;;;;;;4994007;28;20182;-73
2023/10/16 03:15:47;;;;;;;10.30;4.57;;;4.50;99.90;;;;;;4994167;28;20249;-73
2023/10/16 03:18:17;;;;;;;11.37;4.90;;;4.40;99.90;;;;;;4993323;28;20276;-73
2023/10/16 03:20:46;;;;;;;9.60;4.90;;;4.40;99.90;;;;;;4993792;28;20314;-74
2023/10/16 03:23:18;;;;;;;9.60;4.63;;;4.40;99.90;;;;;;4994136;28;20175;-73
2023/10/16 03:28:11;;;;;;;11.47;4.83;;;4.30;99.90;;;;;;4993869;28;20202;-73
2023/10/16 03:30:37;;;;;;;11.30;4.87;;;5.30;99.90;;;;;;4993754;28;20168;-73
2023/10/16 03:33:07;;;;;;;9.37;4.60;;;5.00;99.90;;;;;;4991734;28;20680;-73
2023/10/16 03:35:34;;;;;;;10.60;4.57;;;4.60;99.90;;;;;;4993215;28;20179;-73
2023/10/16 03:38:10;;;;;;;11.43;4.80;;;4.20;99.90;;;;;;4993570;28;20229;-73
2023/10/16 03:40:36;;;;;;;8.10;4.37;;;4.70;99.90;;;;;;4993322;28;20657;-73
2023/10/16 03:43:01;;;;;;;13.00;5.27;;;5.80;99.90;;;;;;4993616;28;20211;-73
2023/10/16 03:45:28;;;;;;;9.00;4.10;;;4.50;99.90;;;;;;4993523;28;20171;-73
2023/10/16 03:47:57;;;;;;;11.13;4.50;;;5.40;99.90;;;;;;4993711;28;20183;-73
2023/10/16 03:50:34;;;;;;;7.80;4.30;;;4.50;99.90;;;;;;4993540;28;20171;-73
2023/10/16 03:53:01;;;;;;;9.40;4.67;;;4.10;99.90;;;;;;4977529;28;20680;-74
2023/10/16 03:55:27;;;;;;;11.30;4.20;;;5.60;99.90;;;;;;4992604;28;20282;-74
2023/10/16 03:57:57;;;;;;;8.73;4.53;;;6.00;99.90;;;;;;4975859;28;20242;-75
2023/10/16 04:03:09;;;;;;;10.53;3.77;;;4.60;99.90;;;;;;4993206;28;20614;-74
2023/10/16 04:05:47;;;;;;;8.77;3.87;;;4.50;99.90;;;;;;4993170;28;20168;-75
2023/10/16 04:08:26;;;;;;;8.53;3.90;;;4.60;99.90;;;;;;4992996;28;20227;-75
2023/10/16 04:10:56;;;;;;;10.00;4.47;;;5.20;99.90;;;;;;4993103;28;20262;-75
2023/10/16 04:13:31;;;;;;;11.03;4.10;;;4.80;99.90;;;;;;4992891;28;20190;-76
2023/10/16 04:16:11;;;;;;;8.37;3.70;;;;;;;;;;4993124;28;20171;-74
2023/10/16 04:18:39;;;;;;;9.13;4.20;;;4.60;99.90;;;;;;4993135;28;20222;-75
2023/10/16 04:26:33;;;;;;;9.40;3.97;;;4.50;99.90;;;;;;4992848;28;20171;-74
2023/10/16 04:47:47;;;;;;;7.70;3.13;;;;;;;;;;4973107;28;20195;-74
2023/10/16 04:50:14;;;;;;;6.17;2.73;;;4.80;99.90;;;;;;4973049;28;20670;-74
2023/10/16 05:19:53;;;;;;;7.23;3.07;;;4.60;99.90;;;;;;4993009;28;20230;-75
2023/10/16 06:14:34;;;;;;;6.67;2.77;;;4.80;99.90;;;;;;4991398;28;20198;-74
2023/10/16 06:17:00;;;;;;;6.10;2.67;;;4.60;99.90;;;;;;4990836;28;20213;-74
2023/10/16 06:19:26;;;;;;;6.97;2.80;;;;;;;;;;4991193;28;20175;-75
2023/10/16 06:22:06;;;;;;;7.00;3.00;;;4.70;99.90;;;;;;4991280;28;20179;-75
2023/10/16 06:24:44;;;;;;;4.90;2.53;;;4.70;99.90;;;;;;4979857;28;20230;-74
2023/10/16 06:27:11;;;;;;;6.90;2.40;;;4.90;99.90;;;;;;4990737;28;20206;-76
2023/10/16 06:29:49;;;;;;;7.23;2.60;;;4.60;99.90;;;;;;4991076;28;20179;-77
2023/10/16 06:32:18;;;;;;;6.53;2.27;;;5.00;99.90;;;;;;4990881;28;20183;-74
2023/10/16 06:34:58;;;;;;;5.27;2.30;;;5.00;99.90;;;;;;4991142;28;20259;-74
2023/10/16 06:37:24;;;;;;;8.53;2.47;;;4.90;99.90;;;;;;4990134;28;20261;-74
2023/10/16 06:39:54;;;;;;;5.17;2.97;;;6.40;99.90;;;;;;4990887;28;20280;-74
2023/10/16 06:42:23;;;;;;;4.57;2.50;;;6.20;99.90;;;;;;4980079;28;20194;-74
2023/10/16 06:44:50;;;;;;;6.20;2.50;;;5.20;99.90;;;;;;4990984;28;20249;-74
2023/10/16 06:48:08;;;;;;;5.60;2.30;;;5.30;99.90;;;;;;4989756;28;20186;-74
2023/10/16 06:52:54;;;;;;;6.77;3.03;;;5.20;99.90;;;;;;4981171;28;20215;-75
2023/10/16 06:55:21;;;;;;;9.47;2.50;;;5.20;99.90;;;;;;4994306;28;20201;-75
2023/10/16 06:57:48;;;;;;;3.47;1.83;;;6.50;99.90;;;;;;4994215;28;20250;-75
2023/10/16 07:02:56;;;;;;;4.97;2.00;;;5.30;99.90;;;;;;4994354;28;20210;-75
2023/10/16 07:05:42;;;;;;;4.63;1.80;;;5.30;99.90;;;;;;4993345;28;20175;-75
2023/10/16 07:08:11;;;;;;;3.90;2.00;;;5.50;99.90;;;;;;4994159;28;20277;-75
2023/10/16 07:10:41;;;;;;;4.47;1.80;;;;;;;;;;4994433;28;20242;-73
2023/10/16 07:13:11;;;;;;;6.77;1.80;;;5.80;99.90;;;;;;4994650;28;20172;-75
2023/10/16 07:15:36;;;;;;;4.97;2.20;;;5.80;99.90;;;;;;4994050;28;20249;-75
2023/10/16 07:18:05;;;;;;;6.57;2.07;;;5.80;99.90;;;;;;4976356;28;20752;-74
2023/10/16 07:20:34;;;;;;;5.47;2.53;;;5.80;99.90;;;;;;4994122;28;20214;-75
2023/10/16 07:23:00;;;;;;;3.57;1.97;;;5.80;99.90;;;;;;4994205;28;20186;-76
2023/10/16 07:25:37;;;;;;;4.83;1.97;;;5.80;99.90;;;;;;4994685;28;20168;-77
2023/10/16 07:28:08;;;;;;;9.27;2.30;;;6.80;99.90;;;;;;4994880;28;20214;-77
2023/10/16 07:30:42;;;;;;;5.07;2.00;;;6.70;99.90;;;;;;4994334;28;20222;-76
2023/10/16 07:33:14;;;;;;;6.20;2.20;;;6.10;99.90;;;;;;4993527;28;20182;-78
2023/10/16 07:35:46;;;;;;;4.57;2.30;;;6.20;99.90;;;;;;4994338;28;20207;-76
2023/10/16 07:38:19;;;;;;;8.20;2.17;;;6.20;99.90;;;;;;4975738;28;20198;-77
2023/10/16 07:40:55;;;;;;;5.23;2.33;;;6.40;99.90;;;;;;4993536;28;20694;-77
2023/10/16 07:43:28;;;;;;;5.40;2.40;;;6.70;99.90;;;;;;4992743;28;20191;-76
2023/10/16 07:46:16;;;;;;;7.17;2.17;;;6.50;99.90;;;;;;4992747;28;20565;-76
2023/10/16 07:48:51;;;;;;;6.03;2.60;;;6.70;99.90;;;;;;4993153;28;20255;-75
2023/10/16 07:51:20;;;;;;;5.03;2.10;;;6.70;99.90;;;;;;4976052;28;20253;-75
2023/10/16 07:53:48;;;;;;;10.93;3.30;;;6.70;99.90;;;;;;4993725;28;20205;-75
2023/10/16 07:58:54;;;;;;;8.40;3.33;;;6.60;99.90;;;;;;4993490;28;20189;-76
2023/10/16 08:01:36;;;;;;;11.60;3.67;;;6.80;99.90;;;;;;4993430;28;20175;-76
2023/10/16 08:04:05;;;;;;;9.93;3.30;;;6.80;99.90;;;;;;4993137;28;20258;-75
2023/10/16 08:06:39;;;;;;;9.87;2.97;;;7.40;99.90;;;;;;4975751;28;20194;-76
2023/10/16 08:11:59;;;;;;;5.23;2.73;;;7.60;99.90;;;;;;4996659;28;20178;-75
2023/10/16 08:14:32;;;;;;;9.63;2.90;;;8.00;99.90;;;;;;4997996;28;20179;-75
2023/10/16 08:16:58;;;;;;;5.80;2.17;;;7.80;99.90;;;;;;4993800;28;20261;-76
2023/10/16 08:19:31;;;;;;;8.57;2.23;;;7.70;99.90;;;;;;4975656;28;20203;-75
2023/10/16 08:21:58;;;;;;;4.50;1.77;;;7.90;99.90;;;;;;4993146;28;20188;-76
2023/10/16 08:24:24;;;;;;;12.50;2.43;;;7.90;99.90;;;;;;4992903;28;20175;-75
2023/10/16 08:26:51;;;;;;;10.17;2.50;;;7.80;99.90;;;;;;4993086;28;20266;-76
2023/10/16 08:34:35;;;;;;;8.53;2.53;;;8.30;99.90;;;;;;4993125;28;20274;-75
2023/10/16 08:37:03;;;;;;;6.43;2.40;;;8.10;99.90;;;;;;4992810;28;20234;-76
2023/10/16 08:39:36;;;;;;;12.77;2.60;;;7.90;99.90;;;;;;4992763;28;20174;-76
2023/10/16 08:42:11;;;;;;;8.10;2.20;;;7.90;99.90;;;;;;4992579;28;20647;-75
2023/10/16 08:44:38;;;;;;;6.67;2.10;;;8.30;99.90;;;;;;4992745;28;20171;-76
2023/10/16 08:49:33;;;;;;;8.30;2.60;;;8.10;99.90;;;;;;4992488;28;20576;-75
2023/10/16 08:52:11;;;;;;;6.80;2.50;;;8.30;99.90;;;;;;4975166;28;20325;-75
2023/10/16 08:55:00;;;;;;;6.50;2.20;;;8.40;99.90;;;;;;4992448;28;20178;-75
2023/10/16 08:57:26;;;;;;;10.60;2.97;;;;;;;;;;4992310;28;20215;-74
2023/10/16 08:59:54;;;;;;;9.50;2.90;;;8.50;99.90;;;;;;4992148;28;20232;-75
2023/10/16 09:02:21;;;;;;;12.97;3.53;;;8.70;99.90;;;;;;4992308;28;20237;-75
2023/10/16 09:04:54;;;;;;;9.07;3.00;;;8.50;99.90;;;;;;4992324;28;20724;-74
2023/10/16 09:07:20;;;;;;;7.60;3.17;;;8.70;99.90;;;;;;4992023;28;20179;-74
2023/10/16 09:09:48;;;;;;;9.40;3.23;;;8.80;99.90;;;;;;4992148;28;20258;-75
2023/10/16 09:12:24;;;;;;;9.03;3.27;;;8.80;99.90;;;;;;4992168;28;20686;-74
2023/10/16 09:14:50;;;;;;;11.60;3.27;;;8.70;99.90;;;;;;4991287;28;20646;-74
2023/10/16 09:17:19;;;;;;;11.03;3.00;;;8.80;99.90;;;;;;4992119;28;20215;-74
2023/10/16 09:19:50;;;;;;;9.23;3.03;;;8.80;99.90;;;;;;4991893;28;20183;-75
2023/10/16 09:22:17;;;;;;;8.80;2.83;;;8.50;99.90;;;;;;4992083;28;20171;-75
2023/10/16 09:24:46;;;;;;;11.30;2.80;;;9.00;99.90;;;;;;4991969;28;20634;-74
2023/10/16 09:27:22;;;;;;;10.77;2.60;;;9.00;99.90;;;;;;4992013;28;20175;-75
2023/10/16 09:29:55;;;;;;;7.93;2.87;;;9.00;99.90;;;;;;4991772;28;20183;-75
2023/10/16 09:32:36;;;;;;;9.37;2.40;;;9.40;99.90;;;;;;4991989;28;20178;-75
2023/10/16 09:35:06;;;;;;;7.40;2.30;;;;;;;;;;4992043;28;20261;-74
2023/10/16 09:37:36;;;;;;;5.83;1.80;;;9.40;1.00;;;;;;4991806;28;20218;-75
2023/10/16 09:40:18;;;;;;;9.93;2.43;;;9.40;1.00;;;;;;4991759;28;20171;-75
2023/10/16 09:42:55;;;;;;;9.67;2.00;;;9.40;1.00;;;;;;4991722;28;20730;-76
2023/10/16 09:45:24;;;;;;;11.70;2.37;;;10.00;1.00;;;;;;4991651;28;20229;-75
2023/10/16 09:47:51;;;;;;;7.53;2.43;;;9.80;1.00;;;;;;4991604;28;20187;-75
2023/10/16 09:50:20;;;;;;;6.30;1.80;;;9.70;1.00;;;;;;4991629;28;20709;-75
2023/10/16 09:52:47;;;;;;;6.00;2.20;;;9.80;99.90;;;;;;4991712;28;20175;-75
2023/10/16 09:55:14;;;;;;;4.87;1.90;;;9.80;99.90;;;;;;4991604;28;20179;-75
2023/10/16 09:57:52;;;;;;;9.10;2.20;;;9.70;99.90;;;;;;4991622;28;20213;-75
2023/10/16 10:00:28;;;;;;;4.43;1.73;;;9.70;1.00;;;;;;4991435;28;20163;-75
2023/10/16 10:03:14;;;;;;;5.50;1.57;;;9.70;1.00;;;;;;4991575;28;20169;-75
2023/10/16 10:11:38;;;;;;;5.73;1.80;;;10.10;99.90;;;;;;4991631;28;20186;-75
2023/10/16 10:14:26;;;;;;;7.63;1.67;;;10.10;1.00;;;;;;4991649;28;20175;-75
2023/10/16 10:16:56;;;;;;;6.67;1.67;;;10.00;1.00;;;;;;4991250;28;20215;-77
2023/10/16 10:19:35;;;;;;;6.17;1.80;;;10.10;99.90;;;;;;4991124;28;20187;-77
2023/10/16 10:22:12;;;;;;;6.47;1.77;;;10.20;99.90;;;;;;4991260;28;20175;-76
2023/10/16 10:24:39;;;;;;;4.17;1.43;;;10.10;99.80;;;;;;4991332;28;20167;-75
2023/10/16 10:27:11;;;;;;;5.63;1.93;;;10.20;99.90;;;;;;4994164;28;20178;-76
2023/10/16 10:29:41;;;;;;;5.80;2.10;;;10.20;99.90;;;;;;4994871;28;20187;-75
2023/10/16 10:32:12;;;;;;;6.13;1.93;;;9.90;1.00;;;;;;4995169;28;20685;-76
2023/10/16 10:34:38;;;;;;;7.10;2.00;;;10.50;1.00;;;;;;4976425;28;20233;-76
2023/10/16 10:37:44;;;;;;;8.20;2.23;;;10.60;99.90;;;;;;4994688;28;20622;-76
2023/10/16 10:40:18;;;;;;;7.47;1.93;;;10.80;99.90;;;;;;4994539;28;20178;-76
2023/10/16 10:42:45;;;;;;;5.60;1.73;;;10.80;99.90;;;;;;4978418;28;20242;-73
2023/10/16 10:45:17;;;;;;;5.97;1.50;;;11.00;1.00;;;;;;4994350;28;20264;-75
2023/10/16 10:47:43;;;;;;;6.13;1.70;;;11.00;1.00;;;;;;4994804;28;20263;-76
2023/10/16 10:50:15;;;;;;;5.50;1.50;;;11.00;99.90;;;;;;4994652;28;20209;-75
2023/10/16 10:52:43;;;;;;;8.47;1.80;;;11.10;1.00;;;;;;4994966;28;20179;-76
2023/10/16 10:55:21;;;;;;;5.00;2.00;;;;;;;;;;4994352;28;20210;-76
2023/10/16 10:57:57;;;;;;;7.73;1.60;;;11.20;1.00;;;;;;4994735;28;20250;-76
2023/10/16 11:05:33;;;;;;;6.13;2.23;;;11.30;99.90;;;;;;4994609;28;20178;-76
2023/10/16 11:10:41;;;;;;;6.10;2.30;;;11.70;1.00;;;;;;4994520;28;20174;-76
2023/10/16 11:13:11;;;;;;;4.70;2.10;;;11.60;1.00;;;;;;4994694;28;20174;-76
2023/10/16 11:15:52;;;;;;;5.00;2.07;;;11.60;1.00;;;;;;4994246;28;20201;-76
2023/10/16 11:18:20;;;;;;;10.07;2.57;;;11.90;1.00;;;;;;4994308;28;20203;-76
2023/10/16 11:20:52;;;;;;;11.73;2.00;;;11.80;99.90;;;;;;4993062;28;20180;-76
2023/10/16 11:23:21;;;;;;;8.87;1.97;;;11.90;99.90;;;;;;4992339;28;20183;-76
2023/10/16 11:25:52;;;;;;;6.67;2.17;;;11.60;99.90;;;;;;4992047;28;20168;-76
2023/10/16 11:28:22;;;;;;;6.17;2.10;;;11.80;1.00;;;;;;4975471;28;20263;-76
2023/10/16 11:30:54;;;;;;;4.37;1.63;;;11.80;1.00;;;;;;4992042;28;20651;-76
2023/10/16 11:33:47;;;;;;;4.50;1.70;;;12.00;1.00;;;;;;4992129;28;20317;-76
2023/10/16 11:36:16;;;;;;;6.13;2.00;;;11.90;1.00;;;;;;4993081;28;20195;-76
2023/10/16 11:38:45;;;;;;;5.17;1.80;;;12.10;99.90;;;;;;4974401;28;20182;-76
2023/10/16 11:41:17;;;;;;;3.53;1.67;;;12.10;1.00;;;;;;4990041;28;20172;-75
2023/10/16 11:43:52;;;;;;;5.53;1.80;;;12.20;99.90;;;;;;4993931;28;20171;-75
2023/10/16 11:46:33;;;;;;;7.67;1.50;;;12.30;1.00;;;;;;4993005;28;20205;-75
2023/10/16 11:51:57;;;;;;;5.87;1.70;;;12.20;1.00;;;;;;4993691;28;20590;-75
2023/10/16 11:54:24;;;;;;;6.03;1.90;;;12.20;58.70;;;;;;4993529;28;20182;-75
2023/10/16 11:56:54;;;;;;;5.32;1.77;;;12.40;99.90;;;;;;4993536;28;20761;-74
2023/10/16 11:59:21;;;;;;;7.43;1.30;;;12.40;1.00;;;;;;4975877;28;20179;-75
2023/10/16 12:01:51;;;;;;;7.60;2.05;;;12.40;1.00;;;;;;4993415;28;20262;-75
2023/10/16 12:04:19;;;;;;;5.07;1.50;;;12.50;1.00;;;;;;4993783;28;20267;-76
2023/10/16 12:06:45;;;;;;;10.43;1.80;;;12.40;1.00;;;;;;4993276;28;20218;-74
2023/10/16 12:09:19;;;;;;;4.53;1.53;;;12.60;1.00;;;;;;4975415;28;20269;-75
2023/10/16 12:11:49;;;;;;;5.20;1.43;;;12.80;1.00;;;;;;4975517;28;20238;-75
2023/10/16 12:14:15;;;;;;;4.40;1.73;;;12.80;1.00;;;;;;4976039;28;20172;-74
2023/10/16 12:16:46;;;;;;;6.13;1.48;;;12.80;99.90;;;;;;4975629;28;20235;-74
2023/10/16 12:19:14;;;;;;;7.30;1.35;;;12.80;99.90;;;;;;4993179;28;20183;-73
2023/10/16 12:21:40;;;;;;;7.13;1.70;;;12.90;99.90;;;;;;4993124;28;20195;-73
2023/10/16 12:24:06;;;;;;;8.82;1.70;;;12.70;99.90;;;;;;4992991;28;20193;-74
2023/10/16 12:26:32;;;;;;;3.47;1.35;;;12.90;1.00;;;;;;4992925;28;20234;-75
2023/10/16 12:28:59;;;;;;;5.75;1.75;;;13.20;1.00;;;;;;4992602;28;20546;-74
2023/10/16 12:31:26;;;;;;;7.70;1.65;;;13.20;99.90;;;;;;4992532;28;20178;-75
2023/10/16 12:33:55;;;;;;;7.28;1.55;;;13.50;1.00;;;;;;4992442;28;20167;-74
2023/10/16 12:36:23;;;;;;;5.45;1.50;;;13.40;1.00;;;;;;4992976;28;20725;-73
2023/10/16 12:38:49;;;;;;;3.25;1.42;;;14.10;1.00;;;;;;4993371;28;20195;-73
2023/10/16 12:41:15;;;;;;;3.50;1.30;;;13.90;1.00;;;;;;4992874;28;20198;-73
2023/10/16 12:43:43;;;;;;;9.85;1.70;;;13.70;1.00;;;;;;4992470;28;20638;-73
2023/10/16 12:46:08;;;;;;;6.03;1.60;;;13.50;1.00;;;;;;4991802;28;20171;-73
2023/10/16 12:48:34;;;;;;;5.68;1.65;;;13.40;1.00;;;;;;4992072;28;20661;-73
2023/10/16 12:51:00;;;;;;;9.65;1.75;;;13.60;99.90;;;;;;4991318;28;20175;-73
2023/10/16 12:53:28;;;;;;;4.63;1.55;;;13.60;1.00;;;;;;4992717;28;20179;-73
2023/10/16 12:55:55;;;;;;;5.00;1.30;;;13.50;99.90;;;;;;4991900;28;20189;-73
2023/10/16 12:58:23;;;;;;;10.30;1.60;;;13.60;99.90;;;;;;4990934;28;20314;-73
2023/10/16 13:00:52;;;;;;;6.78;1.25;;;13.70;1.00;;;;;;4992113;28;20182;-73
2023/10/16 13:03:20;;;;;;;4.10;1.55;;;13.30;99.90;;;;;;4992098;28;20189;-73
2023/10/16 13:05:48;;;;;;;3.13;1.30;;;13.10;99.90;;;;;;4991742;28;20214;-74
2023/10/16 13:08:15;;;;;;;4.50;1.40;;;13.10;99.90;;;;;;4987957;28;20302;-74
2023/10/16 13:10:43;;;;;;;8.30;1.60;;;13.40;1.00;;;;;;4974237;28;20234;-73
2023/10/16 13:13:09;;;;;;;9.45;1.95;;;13.40;1.00;;;;;;4990796;28;20179;-73
2023/10/16 13:15:35;;;;;;;5.72;1.50;;;;;;;;;;4991791;28;20171;-74
2023/10/16 13:18:02;;;;;;;1.90;1.20;;;;;;;;;;4991772;28;20322;-74
2023/10/16 13:20:27;;;;;;;5.63;1.65;;;13.30;1.00;;;;;;4989925;28;20172;-74
2023/10/16 13:22:55;;;;;;;5.88;1.50;;;14.00;99.90;;;;;;4985554;28;20194;-74
2023/10/16 13:25:25;;;;;;;6.85;1.50;;;13.80;1.00;;;;;;4992062;28;20272;-74
2023/10/16 13:27:55;;;;;;;6.50;1.52;;;13.70;99.90;;;;;;4991715;28;20171;-74
2023/10/16 13:30:25;;;;;;;5.65;1.75;;;13.70;99.90;;;;;;4991739;28;20179;-74
2023/10/16 13:32:52;;;;;;;6.25;1.73;;;13.90;99.90;;;;;;4974281;28;20190;-74
2023/10/16 13:35:20;;;;;;;5.18;1.95;;;13.40;1.00;;;;;;4972188;28;20176;-74
2023/10/16 13:37:48;;;;;;;4.85;1.67;;;13.60;99.90;;;;;;4971885;28;20682;-74
2023/10/16 13:40:22;;;;;;;10.80;1.70;;;13.50;99.90;;;;;;4962907;28;20177;-74
2023/10/16 13:42:49;;;;;;;6.78;1.50;;;13.50;45.40;;;;;;4986100;28;20190;-74
2023/10/16 13:45:16;;;;;;;6.38;1.63;;;13.50;99.90;;;;;;4971995;28;20188;-74
2023/10/16 13:47:43;;;;;;;6.30;1.67;;;13.50;1.00;;;;;;4965862;28;20182;-74
2023/10/16 13:50:16;;;;;;;4.10;1.35;;;13.80;99.90;;;;;;4991450;28;20253;-73
2023/10/16 13:52:44;;;;;;;3.67;1.65;;;13.50;1.00;;;;;;4991395;28;20186;-74
2023/10/16 13:55:13;;;;;;;4.18;1.50;;;13.50;1.00;;;;;;4991263;28;20214;-74
2023/10/16 13:57:42;;;;;;;9.35;1.83;;;13.50;99.90;;;;;;4991333;28;20210;-74
2023/10/16 14:00:28;;;;;;;7.88;2.10;;;13.60;9.60;;;;;;4991302;28;20673;-74
2023/10/16 14:05:48;;;;;;;6.90;1.60;;;13.80;99.90;;;;;;4997918;28;20207;-74
2023/10/16 14:08:15;;;;;;;6.22;1.90;;;13.80;99.90;;;;;;4997521;28;20218;-73
2023/10/16 14:10:57;;;;;;;4.60;1.45;;;13.80;1.00;;;;;;4968868;28;20217;-74
2023/10/16 14:13:32;;;;;;;4.53;1.30;;;13.80;1.00;;;;;;4978140;28;20516;-73
2023/10/16 14:16:10;;;;;;;5.47;1.50;;;13.70;1.00;;;;;;4978417;28;20182;-74
2023/10/16 14:18:38;;;;;;;5.10;1.52;;;13.70;99.90;;;;;;4978514;28;20655;-74
2023/10/16 14:21:08;;;;;;;6.28;1.35;;;13.70;1.00;;;;;;4978494;28;20202;-74
2023/10/16 14:23:34;;;;;;;8.27;1.88;;;13.60;1.00;;;;;;4978213;28;20183;-74
2023/10/16 14:26:00;;;;;;;8.40;1.60;;;13.60;1.00;;;;;;4978033;28;20203;-75
2023/10/16 14:28:32;;;;;;;3.88;1.90;;;13.20;1.00;;;;;;4978067;28;20202;-75
2023/10/16 14:31:08;;;;;;;4.57;1.40;;;13.50;1.00;;;;;;4978206;28;20176;-74
2023/10/16 14:33:35;;;;;;;7.15;1.50;;;13.40;99.90;;;;;;4992551;28;20309;-75
2023/10/16 14:36:04;;;;;;;3.60;1.35;;;13.30;1.00;;;;;;4996972;28;20182;-74
2023/10/16 14:38:30;;;;;;;8.20;1.65;;;13.20;99.90;;;;;;4997371;28;20225;-74
2023/10/16 14:40:58;;;;;;;4.68;1.20;;;13.10;29.60;;;;;;4997678;28;20221;-75
2023/10/16 14:43:24;;;;;;;5.53;1.35;;;13.10;1.00;;;;;;4997529;28;20202;-75
2023/10/16 14:45:53;;;;;;;4.33;1.20;;;13.10;40.20;;;;;;4997409;28;20634;-76
2023/10/16 14:48:20;;;;;;;3.23;1.23;;;12.90;1.00;;;;;;4997655;28;20195;-75
2023/10/16 14:50:46;;;;;;;5.30;1.75;;;12.80;1.00;;;;;;4997598;28;20179;-74
2023/10/16 14:53:12;;;;;;;7.83;1.40;;;12.90;1.00;;;;;;4997673;28;20580;-75
2023/10/16 14:55:39;;;;;;;9.20;1.70;;;12.50;1.00;;;;;;4997437;28;20171;-75
2023/10/16 14:58:06;;;;;;;9.80;1.87;;;13.00;99.90;;;;;;4997572;28;20347;-75
2023/10/16 15:00:56;;;;;;;4.37;1.67;;;12.80;1.00;;;;;;4997378;28;20179;-74
2023/10/16 15:03:18;;;;;;;5.32;1.65;;;12.90;1.00;;;;;;4996984;28;20175;-74
2023/10/16 15:05:45;;;;;;;3.00;1.27;;;12.80;1.00;;;;;;4979800;28;20175;-74
2023/10/16 15:08:13;;;;;;;6.20;1.83;;;12.80;1.00;;;;;;4976160;28;20705;-73
2023/10/16 15:10:43;;;;;;;4.45;1.80;;;13.00;7.30;;;;;;4977470;28;20680;-73
2023/10/16 15:13:16;;;;;;;4.43;1.83;;;12.90;99.90;;;;;;4974321;28;20172;-73
2023/10/16 15:15:43;;;;;;;5.33;1.67;;;12.90;99.90;;;;;;4974808;28;20258;-73
2023/10/16 15:18:09;;;;;;;6.60;2.00;;;12.70;99.90;;;;;;4974498;28;20211;-72
2023/10/16 15:20:39;;;;;;;4.37;1.90;;;12.60;1.00;;;;;;4974164;28;20176;-73
2023/10/16 15:23:06;;;;;;;5.37;1.80;;;12.60;75.20;;;;;;4972466;28;20642;-73
2023/10/16 15:25:32;;;;;;;7.87;1.97;;;12.60;99.90;;;;;;4969651;28;20262;-73
2023/10/16 15:27:58;;;;;;;7.25;2.10;;;12.50;1.00;;;;;;4974705;28;20180;-73
2023/10/16 15:30:27;;;;;;;10.53;2.57;;;12.50;99.90;;;;;;4962891;28;20212;-73
2023/10/16 15:32:53;;;;;;;7.33;2.00;;;12.40;99.90;;;;;;4955089;28;20176;-75
2023/10/16 15:35:20;;;;;;;6.50;2.27;;;12.50;1.00;;;;;;4953317;29;20199;-73
2023/10/16 15:37:45;;;;;;;5.73;1.57;;;12.60;99.90;;;;;;4957461;28;20211;-73